Time;durP1;ratioP1;P1;durP2;ratioP2;P2;SDS_P1;SDS_P2;PMS_P1;PMS_P2;Temp;Humidity;BMP_temperature;BMP_pressure;BME280_temperature;BME280_humidity;BME280_pressure;Samples;Min_cycle;Max_cycle;Signal;HPM_P1;HPM_P2
2021/01/25 00:04:53;;;;;;;1.57;1.47;;;;;;;-0.82;100.00;97550.88;3828624;75;396067;-75
2021/01/25 00:10:15;;;;;;;2.17;0.87;;;;;;;-0.79;100.00;97554.41;3829272;76;383835;-75
2021/01/25 00:15:36;;;;;;;1.27;1.17;;;;;;;-0.97;100.00;97551.80;3829030;75;391903;-75
2021/01/25 00:20:56;;;;;;;2.23;2.00;;;;;;;-1.05;100.00;97548.20;3828696;75;389876;-75
2021/01/25 00:26:18;;;;;;;1.53;1.33;;;;;;;-1.12;100.00;97541.89;3828751;75;391958;-75
2021/01/25 00:31:39;;;;;;;0.80;0.40;;;;;;;-1.12;100.00;97545.95;3829743;75;383844;-75
2021/01/25 00:37:01;;;;;;;1.33;1.23;;;;;;;-1.10;100.00;97544.47;3829265;75;383852;-75
2021/01/25 00:42:22;;;;;;;1.03;0.93;;;;;;;-1.08;100.00;97534.66;3829178;75;391906;-75
2021/01/25 00:47:43;;;;;;;1.73;1.60;;;;;;;-1.06;100.00;97535.08;3829104;75;383877;-76
2021/01/25 00:53:04;;;;;;;1.77;1.03;;;;;;;-1.05;100.00;97533.36;3829031;76;385699;-76
2021/01/25 00:58:25;;;;;;;6.37;2.30;;;;;;;-1.08;100.00;97523.86;3828615;75;383579;-75
2021/01/25 01:03:47;;;;;;;1.30;1.17;;;;;;;-1.11;100.00;97516.48;3828509;75;396112;-75
2021/01/25 01:09:08;;;;;;;1.10;1.00;;;;;;;-1.17;100.00;97517.94;3829431;75;383579;-75
2021/01/25 01:14:29;;;;;;;0.90;0.73;;;;;;;-1.20;100.00;97520.78;3829631;75;383843;-76
2021/01/25 01:19:51;;;;;;;0.80;0.50;;;;;;;-1.21;100.00;97504.98;3829875;75;383583;-77
2021/01/25 01:25:12;;;;;;;1.93;1.50;;;;;;;-1.25;100.00;97508.94;3828112;75;396076;-75
2021/01/25 01:30:33;;;;;;;2.37;2.17;;;;;;;-1.27;100.00;97506.39;3865701;76;383764;-75
2021/01/25 01:35:54;;;;;;;0.90;0.77;;;;;;;-1.26;100.00;97507.41;3868015;75;383794;-75
2021/01/25 01:41:15;;;;;;;1.07;0.73;;;;;;;-1.24;100.00;97512.42;3867644;75;387803;-76
2021/01/25 01:46:38;;;;;;;1.53;0.70;;;;;;;-1.25;100.00;97513.56;3867509;75;387731;-76
2021/01/25 01:51:59;;;;;;;1.60;1.50;;;;;;;-1.32;100.00;97507.47;3867212;75;383623;-76
2021/01/25 01:57:20;;;;;;;0.80;0.60;;;;;;;-1.35;100.00;97505.52;3867746;75;383787;-75
2021/01/25 02:02:42;;;;;;;1.83;1.60;;;;;;;-1.41;100.00;97516.95;3867041;75;388087;-75
2021/01/25 02:08:03;;;;;;;1.63;1.20;;;;;;;-1.49;100.00;97509.30;3867064;75;383878;-75
2021/01/25 02:13:25;;;;;;;1.63;1.53;;;;;;;-1.56;100.00;97503.78;3866698;75;396330;-76
2021/01/25 02:18:47;;;;;;;2.00;1.60;;;;;;;-1.50;100.00;97513.16;3866767;75;396311;-76
2021/01/25 02:24:17;;;;;;;8.83;2.37;;;;;;;-1.29;100.00;97509.45;3866942;75;387852;-76
2021/01/25 02:29:38;;;;;;;3.10;1.73;;;;;;;-1.52;100.00;97497.90;3842824;74;383567;-75
2021/01/25 02:35:02;;;;;;;2.10;0.93;;;;;;;-1.63;100.00;97489.42;3828719;75;394430;-76
2021/01/25 02:40:25;;;;;;;2.17;1.03;;;;;;;-1.66;100.00;97492.83;3829947;73;395078;-75
2021/01/25 02:45:48;;;;;;;1.77;1.10;;;;;;;-1.69;100.00;97490.83;3828272;75;393938;-75
2021/01/25 02:51:09;;;;;;;1.13;1.03;;;;;;;-1.50;100.00;97483.50;3828884;75;392142;-75
2021/01/25 02:56:31;;;;;;;0.80;0.70;;;;;;;-1.68;100.00;97488.94;3829558;75;383765;-75
2021/01/25 03:01:52;;;;;;;2.07;0.73;;;;;;;-1.73;100.00;97476.53;3829175;76;383789;-76
2021/01/25 03:07:13;;;;;;;1.33;1.13;;;;;;;-1.81;100.00;97477.54;3828638;75;394278;-75
2021/01/25 03:12:34;;;;;;;4.73;2.60;;;;;;;-1.66;100.00;97492.83;3828646;76;390007;-76
2021/01/25 03:17:55;;;;;;;2.37;1.33;;;;;;;-1.43;100.00;97481.47;3828708;76;392237;-76
2021/01/25 03:23:16;;;;;;;1.23;1.00;;;;;;;-1.50;100.00;97487.55;3828615;76;392103;-76
2021/01/25 03:28:37;;;;;;;2.70;1.97;;;;;;;-1.65;100.00;97490.34;3841874;76;392151;-76
2021/01/25 03:33:58;;;;;;;2.07;1.97;;;;;;;-1.71;100.00;97499.87;3867212;75;383826;-76
2021/01/25 03:39:20;;;;;;;2.67;2.40;;;;;;;-1.70;100.00;97497.39;3866781;75;390074;-75
2021/01/25 03:44:41;;;;;;;2.73;1.53;;;;;;;-1.58;100.00;97501.24;3866988;75;387799;-76
2021/01/25 03:50:01;;;;;;;5.13;2.87;;;;;;;-1.64;100.00;97505.38;3866371;75;393943;-76
2021/01/25 03:55:23;;;;;;;1.47;1.37;;;;;;;-1.65;100.00;97511.91;3867050;75;383787;-76
2021/01/25 04:00:44;;;;;;;2.37;1.23;;;;;;;-1.65;100.00;97505.72;3866478;75;394279;-76
2021/01/25 04:06:06;;;;;;;0.80;0.73;;;;;;;-1.62;100.00;97503.66;3867860;75;383601;-76
2021/01/25 04:11:27;;;;;;;0.90;0.53;;;;;;;-1.58;100.00;97502.59;3867871;75;383574;-76
2021/01/25 04:16:48;;;;;;;2.50;2.37;;;;;;;-1.54;100.00;97504.22;3866327;75;396038;-76
2021/01/25 04:22:09;;;;;;;1.17;1.07;;;;;;;-1.54;100.00;97500.17;3866565;75;396123;-75
2021/01/25 04:27:30;;;;;;;1.20;1.10;;;;;;;-1.53;100.00;97494.99;3866171;75;389774;-75
2021/01/25 04:32:51;;;;;;;0.80;0.40;;;;;;;-1.48;100.00;97489.29;3829484;75;383801;-75
2021/01/25 04:38:12;;;;;;;1.00;0.90;;;;;;;-1.51;100.00;97489.23;3829696;76;383800;-76
2021/01/25 04:43:34;;;;;;;1.50;0.70;;;;;;;-1.49;100.00;97496.39;3828962;75;390101;-76
2021/01/25 04:48:56;;;;;;;0.90;0.67;;;;;;;-1.49;100.00;97498.52;3809990;75;383803;-76
2021/01/25 04:54:17;;;;;;;1.37;1.27;;;;;;;-1.50;100.00;97491.59;3828262;75;394998;-75
2021/01/25 04:59:38;;;;;;;2.20;1.70;;;;;;;-1.47;100.00;97494.89;3828216;75;393981;-75
2021/01/25 05:04:59;;;;;;;2.90;1.97;;;;;;;-1.47;100.00;97494.13;3828812;76;394265;-75
2021/01/25 05:10:21;;;;;;;1.97;0.70;;;;;;;-1.46;100.00;97508.59;3828682;75;389876;-76
2021/01/25 05:15:42;;;;;;;2.10;1.33;;;;;;;-1.47;100.00;97508.95;3828447;75;396075;-76
2021/01/25 05:21:05;;;;;;;1.77;0.97;;;;;;;-1.42;100.00;97505.40;3828720;75;389092;-76
2021/01/25 05:26:26;;;;;;;1.80;1.00;;;;;;;-1.31;100.00;97512.31;3828117;75;394004;-76
2021/01/25 05:31:50;;;;;;;2.43;2.20;;;;;;;-1.41;100.00;97517.72;3828489;75;392995;-76
2021/01/25 05:37:17;;;;;;;1.50;1.40;;;;;;;-1.43;100.00;97517.32;3828640;75;391855;-75
2021/01/25 05:42:38;;;;;;;1.97;1.47;;;;;;;-1.41;100.00;97509.63;3829248;76;383776;-76
2021/01/25 05:48:00;;;;;;;0.80;0.60;;;;;;;-1.36;100.00;97508.55;3829603;75;383536;-76
2021/01/25 05:53:21;;;;;;;0.80;0.57;;;;;;;-1.39;100.00;97514.69;3829632;75;383784;-76
2021/01/25 05:58:43;;;;;;;2.70;0.90;;;;;;;-1.43;100.00;97520.02;3829113;75;383586;-76
2021/01/25 06:04:06;;;;;;;0.80;0.50;;;;;;;-1.46;100.00;97517.26;3829525;75;383591;-76
2021/01/25 06:09:29;;;;;;;1.67;1.57;;;;;;;-1.46;100.00;97523.42;3829016;75;395313;-76
2021/01/25 06:14:59;;;;;;;1.00;0.87;;;;;;;-1.45;100.00;97529.58;3829766;75;383583;-76
2021/01/25 06:20:22;;;;;;;2.50;1.10;;;;;;;-1.41;100.00;97530.44;3828360;75;396327;-76
2021/01/25 06:25:43;;;;;;;21.13;2.93;;;;;;;-1.42;100.00;97538.31;3828339;75;387727;-77
2021/01/25 06:31:06;;;;;;;1.30;0.90;;;;;;;-1.42;100.00;97550.44;3829679;75;383583;-76
2021/01/25 06:36:28;;;;;;;1.17;1.07;;;;;;;-1.36;100.00;97543.61;3828721;75;392947;-76
2021/01/25 06:41:49;;;;;;;1.17;1.07;;;;;;;-1.46;100.00;97543.64;3829001;75;383777;-77
2021/01/25 06:47:14;;;;;;;1.93;1.73;;;;;;;-1.40;100.00;97551.64;3828216;75;396099;-76
2021/01/25 06:52:37;;;;;;;3.23;1.37;;;;;;;-1.48;100.00;97547.84;3828282;76;396119;-76
2021/01/25 06:58:05;;;;;;;1.83;1.70;;;;;;;-1.50;100.00;97550.11;3828774;75;392190;-76
2021/01/25 07:03:25;;;;;;;2.60;2.40;;;;;;;-1.50;100.00;97558.19;3828460;75;394226;-76
2021/01/25 07:08:54;;;;;;;2.00;1.90;;;;;;;-1.48;100.00;97564.02;3828238;75;396079;-76
2021/01/25 07:14:16;;;;;;;2.90;2.60;;;;;;;-1.47;100.00;97574.43;3829420;76;383587;-77
2021/01/25 07:19:37;;;;;;;1.10;1.00;;;;;;;-1.50;100.00;97579.21;3828925;75;392158;-76
2021/01/25 07:24:59;;;;;;;1.33;0.80;;;;;;;-1.46;100.00;97590.83;3829549;75;383583;-77
2021/01/25 07:30:21;;;;;;;1.50;1.20;;;;;;;-1.42;100.00;97601.13;3828832;75;393958;-76
2021/01/25 07:35:42;;;;;;;1.20;1.00;;;;;;;-1.38;100.00;97599.26;3829229;75;391949;-76
2021/01/25 07:41:04;;;;;;;1.37;1.23;;;;;;;-1.31;100.00;97617.49;3828446;76;396079;-76
2021/01/25 07:46:25;;;;;;;0.90;0.60;;;;;;;-1.24;100.00;97607.59;3829713;75;385692;-76
2021/01/25 07:51:46;;;;;;;1.97;1.80;;;;;;;-1.16;100.00;97617.38;3828989;76;388049;-76
2021/01/25 07:57:10;;;;;;;0.93;0.83;;;;;;;-1.13;100.00;97617.25;3828818;75;391944;-76
2021/01/25 08:02:31;;;;;;;5.80;1.23;;;;;;;-1.10;100.00;97625.95;3829089;76;383590;-77
2021/01/25 08:07:54;;;;;;;2.03;1.93;;;;;;;-1.03;100.00;97623.37;3828624;76;396057;-77
2021/01/25 08:13:17;;;;;;;1.00;0.80;;;;;;;-0.96;100.00;97635.09;3828995;75;391947;-76
2021/01/25 08:18:44;;;;;;;7.83;3.40;;;;;;;-0.83;100.00;97635.11;3828578;75;393948;-76
2021/01/25 08:24:08;;;;;;;2.07;1.00;;;;;;;-0.71;100.00;97643.04;3828381;75;395090;-76
2021/01/25 08:29:29;;;;;;;6.83;2.30;;;;;;;-0.61;100.00;97647.26;3891199;75;391915;-77
2021/01/25 08:35:05;;;;;;;2.73;2.53;;;;;;;-0.47;100.00;97651.52;3893113;75;392214;-77
2021/01/25 08:40:29;;;;;;;2.03;0.70;;;;;;;-0.14;100.00;97654.34;3892872;75;393990;-77
2021/01/25 08:45:56;;;;;;;1.27;1.13;;;;;;;0.15;100.00;97654.97;3892627;74;391845;-77
2021/01/25 08:51:29;;;;;;;2.83;2.63;;;;;;;0.26;100.00;97663.98;3893166;75;391907;-78
2021/01/25 08:56:50;;;;;;;2.60;1.17;;;;;;;0.29;100.00;97670.02;3892101;75;393982;-78
2021/01/25 09:02:17;;;;;;;1.93;1.07;;;;;;;0.44;100.00;97676.61;3892950;75;389777;-78
2021/01/25 09:07:38;;;;;;;3.10;2.40;;;;;;;0.53;100.00;97683.08;3894971;75;389835;-78
2021/01/25 09:13:00;;;;;;;3.63;1.87;;;;;;;0.46;100.00;97684.35;3892493;74;396058;-78
2021/01/25 09:18:21;;;;;;;2.07;1.93;;;;;;;0.50;100.00;97695.98;3892599;75;396121;-78
2021/01/25 09:23:42;;;;;;;2.80;1.80;;;;;;;0.54;100.00;97694.88;3892253;74;396076;-78
2021/01/25 09:29:04;;;;;;;0.80;0.53;;;;;;;0.46;100.00;97704.05;3893531;75;383565;-78
2021/01/25 09:34:24;;;;;;;2.13;2.03;;;;;;;0.50;100.00;97700.83;3927310;74;387797;-78
2021/01/25 09:39:46;;;;;;;1.77;1.43;;;;;;;0.64;100.00;97712.41;3932063;74;394265;-78
2021/01/25 09:45:08;;;;;;;2.40;1.77;;;;;;;0.81;100.00;97715.33;3932039;74;396085;-78
2021/01/25 09:50:29;;;;;;;1.27;1.17;;;;;;;0.95;100.00;97729.81;3932942;74;385880;-78
2021/01/25 09:55:50;;;;;;;1.00;0.90;;;;;;;1.27;100.00;97737.71;3933070;74;387779;-77
2021/01/25 10:01:12;;;;;;;1.30;1.20;;;;;;;1.61;100.00;97739.98;3932472;74;391918;-78
2021/01/25 10:06:33;;;;;;;2.27;1.27;;;;;;;1.79;100.00;97745.00;3932227;74;396069;-77
2021/01/25 10:11:55;;;;;;;2.03;1.53;;;;;;;1.73;100.00;97752.48;3932388;74;396104;-78
2021/01/25 10:17:16;;;;;;;2.50;2.30;;;;;;;1.59;100.00;97760.48;3932716;74;389077;-78
2021/01/25 10:22:37;;;;;;;1.57;1.30;;;;;;;1.43;100.00;97774.05;3932327;74;396095;-78
2021/01/25 10:28:00;;;;;;;5.13;2.27;;;;;;;1.42;100.00;97777.90;3932350;74;396069;-78
2021/01/25 10:33:21;;;;;;;1.87;1.67;;;;;;;1.37;100.00;97776.33;3911610;74;383755;-78
2021/01/25 10:38:44;;;;;;;4.00;3.00;;;;;;;1.58;100.00;97783.31;3892898;75;396309;-78
2021/01/25 10:44:05;;;;;;;1.80;1.70;;;;;;;1.77;100.00;97785.84;3892914;74;394009;-78
2021/01/25 10:49:27;;;;;;;2.97;2.50;;;;;;;1.84;100.00;97788.61;3892476;74;396380;-78
2021/01/25 10:54:48;;;;;;;2.63;2.27;;;;;;;1.85;100.00;97798.30;3892755;75;389919;-78
2021/01/25 11:00:12;;;;;;;3.80;1.53;;;;;;;2.12;100.00;97801.84;3892486;75;396077;-78
2021/01/25 11:05:35;;;;;;;2.87;2.60;;;;;;;2.54;100.00;97805.65;3894267;74;396377;-77
2021/01/25 11:10:56;;;;;;;3.67;2.40;;;;;;;2.88;100.00;97804.31;3892538;74;393987;-78
2021/01/25 11:16:18;;;;;;;1.00;0.90;;;;;;;2.89;100.00;97807.23;3893310;74;387767;-79
2021/01/25 11:21:39;;;;;;;1.53;1.07;;;;;;;3.03;98.53;97815.45;3892800;75;391864;-78
2021/01/25 11:27:03;;;;;;;1.23;1.10;;;;;;;3.02;95.85;97826.11;3893015;74;389813;-79
2021/01/25 11:32:22;;;;;;;5.70;4.03;;;;;;;2.98;95.38;97827.25;3900872;74;396430;-78
2021/01/25 11:37:44;;;;;;;1.43;1.33;;;;;;;3.68;95.53;97826.97;3932407;74;396112;-77
2021/01/25 11:43:05;;;;;;;1.70;1.43;;;;;;;4.00;90.08;97833.45;3931975;74;394012;-77
2021/01/25 11:48:26;;;;;;;2.03;1.93;;;;;;;4.02;88.96;97837.14;3931962;74;396143;-78
2021/01/25 11:53:47;;;;;;;2.63;1.80;;;;;;;4.15;80.92;97841.84;3932553;74;391875;-78
2021/01/25 11:59:09;;;;;;;1.40;0.97;;;;;;;4.23;85.78;97842.63;3932549;74;393949;-78
2021/01/25 12:04:30;;;;;;;2.10;1.70;;;;;;;4.36;87.27;97845.92;3932140;74;396482;-78
2021/01/25 12:09:51;;;;;;;1.40;1.00;;;;;;;4.40;83.25;97848.67;3932325;74;393949;-77
2021/01/25 12:15:13;;;;;;;2.93;2.30;;;;;;;4.07;82.64;97859.31;3932550;74;383809;-78
2021/01/25 12:20:34;;;;;;;1.80;0.97;;;;;;;3.96;87.22;97857.73;3932559;74;387779;-77
2021/01/25 12:25:55;;;;;;;1.43;1.33;;;;;;;3.88;83.62;97858.12;3932271;74;394049;-78
2021/01/25 12:31:17;;;;;;;1.70;1.60;;;;;;;3.82;85.57;97854.98;3932113;74;392178;-78
2021/01/25 12:36:38;;;;;;;1.40;1.10;;;;;;;4.22;83.86;97860.89;3932119;74;392351;-78
2021/01/25 12:41:59;;;;;;;1.13;1.03;;;;;;;4.20;84.50;97863.80;3932801;74;383545;-77
2021/01/25 12:47:20;;;;;;;2.50;2.40;;;;;;;4.24;82.26;97866.73;3932176;74;392919;-76
2021/01/25 12:52:42;;;;;;;2.80;1.57;;;;;;;3.93;84.31;97868.61;3911648;74;394192;-76
2021/01/25 12:58:03;;;;;;;1.50;1.40;;;;;;;3.62;83.95;97870.06;3866513;75;391915;-77
2021/01/25 13:03:24;;;;;;;2.17;1.67;;;;;;;3.62;86.18;97870.06;3866077;75;396370;-77
2021/01/25 13:08:45;;;;;;;2.10;1.60;;;;;;;3.65;85.52;97879.39;3866301;74;393994;-77
2021/01/25 13:14:07;;;;;;;3.20;1.90;;;;;;;3.54;83.21;97879.95;3865926;76;396069;-77
2021/01/25 13:19:28;;;;;;;4.17;2.40;;;;;;;3.46;89.91;97883.20;3866008;74;396085;-77
2021/01/25 13:24:50;;;;;;;1.23;1.13;;;;;;;3.48;89.14;97893.69;3866545;74;392212;-76
2021/01/25 13:30:12;;;;;;;2.33;1.27;;;;;;;3.00;91.23;97896.92;3866211;74;391906;-77
2021/01/25 13:35:33;;;;;;;0.90;0.80;;;;;;;2.65;92.87;97906.95;3842839;74;392157;-77
2021/01/25 13:40:55;;;;;;;1.53;1.43;;;;;;;1.83;100.00;97917.94;3828626;75;383773;-77
2021/01/25 13:46:16;;;;;;;0.87;0.73;;;;;;;1.83;100.00;97928.78;3829280;75;383866;-76
2021/01/25 13:51:37;;;;;;;1.10;0.70;;;;;;;2.04;100.00;97934.47;3828789;75;388060;-77
2021/01/25 13:56:59;;;;;;;6.43;2.63;;;;;;;2.38;100.00;97946.84;3827960;75;394006;-77
2021/01/25 14:02:22;;;;;;;1.47;1.37;;;;;;;2.40;100.00;97957.52;3827395;75;396295;-77
2021/01/25 14:07:42;;;;;;;1.43;1.30;;;;;;;2.30;100.00;97972.34;3828618;75;392121;-77
2021/01/25 14:13:04;;;;;;;2.40;1.33;;;;;;;1.97;100.00;97976.42;3827834;75;396370;-76
2021/01/25 14:18:25;;;;;;;0.97;0.70;;;;;;;1.87;100.00;97981.69;3828882;75;383787;-77
2021/01/25 14:23:46;;;;;;;1.80;1.70;;;;;;;1.69;100.00;97990.97;3827756;75;396086;-77
2021/01/25 14:29:07;;;;;;;2.17;1.00;;;;;;;1.52;100.00;97997.52;3827961;75;391898;-76
2021/01/25 14:34:28;;;;;;;4.00;2.27;;;;;;;1.59;100.00;98000.31;3827914;75;396086;-75
2021/01/25 14:39:49;;;;;;;0.80;0.50;;;;;;;1.11;100.00;98010.65;3828995;75;383539;-77
2021/01/25 14:45:13;;;;;;;2.20;2.00;;;;;;;1.20;100.00;98012.53;3827535;76;396038;-77
2021/01/25 14:50:34;;;;;;;0.87;0.70;;;;;;;1.26;100.00;98017.03;3829261;75;383847;-77
2021/01/25 14:55:55;;;;;;;2.13;1.10;;;;;;;1.10;100.00;98022.62;3849959;75;392148;-77
2021/01/25 15:01:16;;;;;;;2.47;2.27;;;;;;;0.87;100.00;98028.63;3892719;75;396099;-76
2021/01/25 15:06:37;;;;;;;1.00;0.83;;;;;;;0.85;100.00;98038.23;3893516;74;383585;-78
2021/01/25 15:11:58;;;;;;;1.90;1.80;;;;;;;0.76;100.00;98043.67;3892736;75;396197;-78
2021/01/25 15:17:20;;;;;;;2.60;2.00;;;;;;;0.52;100.00;98066.46;3892753;75;394258;-77
2021/01/25 15:22:41;;;;;;;2.80;2.43;;;;;;;0.44;100.00;98072.08;3892380;74;396158;-78
2021/01/25 15:28:03;;;;;;;2.40;2.20;;;;;;;0.32;100.00;98077.66;3892387;75;396080;-77
2021/01/25 15:33:24;;;;;;;3.43;1.10;;;;;;;0.45;100.00;98085.82;3892796;75;396114;-77
2021/01/25 15:38:46;;;;;;;1.30;1.20;;;;;;;0.44;100.00;98093.72;3892793;75;396341;-78
2021/01/25 15:44:07;;;;;;;1.10;0.80;;;;;;;0.45;100.00;98104.17;3893243;74;391950;-77
2021/01/25 15:49:28;;;;;;;1.60;1.50;;;;;;;0.57;100.00;98112.70;3893767;75;383801;-77
2021/01/25 15:54:52;;;;;;;1.00;0.80;;;;;;;0.59;100.00;98116.64;3893423;75;389828;-78
2021/01/25 16:00:15;;;;;;;0.90;0.70;;;;;;;0.51;100.00;98136.58;3871101;75;383803;-77
2021/01/25 16:05:36;;;;;;;1.80;1.10;;;;;;;0.44;100.00;98142.41;3828482;75;394025;-78
2021/01/25 16:10:57;;;;;;;20.23;3.07;;;;;;;0.60;100.00;98140.41;3827935;75;396351;-77
2021/01/25 16:16:19;;;;;;;3.77;1.50;;;;;;;0.68;100.00;98150.23;3828022;77;388780;-77
2021/01/25 16:21:40;;;;;;;3.17;2.97;;;;;;;0.60;100.00;98155.30;3827734;76;396083;-77
2021/01/25 16:27:01;;;;;;;3.37;2.57;;;;;;;0.57;100.00;98162.20;3827971;75;391923;-78
2021/01/25 16:32:22;;;;;;;2.40;2.20;;;;;;;0.47;100.00;98170.88;3827894;75;394018;-77
2021/01/25 16:37:43;;;;;;;4.73;1.57;;;;;;;0.50;100.00;98181.56;3828408;75;394051;-77
2021/01/25 16:43:05;;;;;;;1.13;1.00;;;;;;;0.38;100.00;98189.23;3828353;75;391905;-78
2021/01/25 16:48:26;;;;;;;1.57;1.20;;;;;;;0.32;100.00;98198.01;3827930;77;396090;-77
2021/01/25 16:53:48;;;;;;;3.33;2.47;;;;;;;0.27;100.00;98204.47;3828113;75;396334;-77
2021/01/25 16:59:09;;;;;;;4.00;2.80;;;;;;;0.20;100.00;98215.69;3828001;75;396311;-78
2021/01/25 17:04:30;;;;;;;4.07;2.33;;;;;;;0.24;100.00;98220.62;3827886;75;396201;-78
2021/01/25 17:09:51;;;;;;;4.50;2.10;;;;;;;0.22;100.00;98229.07;3827724;75;394027;-78
2021/01/25 17:15:13;;;;;;;2.30;2.17;;;;;;;0.22;100.00;98237.77;3827817;75;396283;-77
2021/01/25 17:20:34;;;;;;;2.23;1.77;;;;;;;0.23;100.00;98239.34;3827456;77;396264;-77
2021/01/25 17:25:55;;;;;;;3.07;2.87;;;;;;;0.28;100.00;98247.94;3827814;76;396485;-77
2021/01/25 17:31:16;;;;;;;9.03;3.17;;;;;;;0.20;100.00;98256.25;3828489;75;395348;-77
2021/01/25 17:36:38;;;;;;;5.10;2.20;;;;;;;0.19;100.00;98255.48;3834857;75;396146;-78
2021/01/25 17:42:00;;;;;;;2.87;2.20;;;;;;;0.16;100.00;98261.58;3845281;76;396173;-77
2021/01/25 17:47:21;;;;;;;1.93;1.83;;;;;;;0.21;100.00;98262.66;3845097;76;396075;-78
2021/01/25 17:52:44;;;;;;;2.07;1.97;;;;;;;0.20;100.00;98275.18;3845114;76;396078;-76
2021/01/25 17:58:06;;;;;;;3.77;1.70;;;;;;;0.15;100.00;98284.92;3845635;76;396079;-77
2021/01/25 18:03:27;;;;;;;3.33;3.03;;;;;;;0.18;100.00;98292.31;3846799;75;396027;-77
2021/01/25 18:08:49;;;;;;;3.33;3.03;;;;;;;0.10;100.00;98296.79;3845355;76;396177;-77
2021/01/25 18:14:10;;;;;;;2.07;1.87;;;;;;;0.26;100.00;98303.52;3845191;76;396295;-77
2021/01/25 18:19:31;;;;;;;3.37;3.07;;;;;;;0.19;100.00;98314.97;3845821;76;396381;-77
2021/01/25 18:24:52;;;;;;;11.63;3.73;;;;;;;0.26;100.00;98317.84;3846302;76;396107;-77
2021/01/25 18:30:19;;;;;;;2.47;2.10;;;;;;;0.23;100.00;98333.41;3845870;76;396197;-78
2021/01/25 18:35:41;;;;;;;2.67;1.80;;;;;;;0.17;100.00;98336.16;3844430;76;396070;-78
2021/01/25 18:41:02;;;;;;;8.97;3.60;;;;;;;0.14;100.00;98350.37;3828609;75;396067;-77
2021/01/25 18:46:24;;;;;;;3.20;3.00;;;;;;;0.11;100.00;98354.34;3828743;75;396075;-77
2021/01/25 18:51:45;;;;;;;5.77;3.80;;;;;;;0.29;100.00;98365.03;3828503;75;386755;-78
2021/01/25 18:57:06;;;;;;;4.30;2.30;;;;;;;0.45;100.00;98364.45;3827792;75;396106;-77
2021/01/25 19:02:27;;;;;;;2.97;2.53;;;;;;;0.41;100.00;98374.39;3828045;76;396097;-77
2021/01/25 19:07:49;;;;;;;1.53;1.43;;;;;;;0.33;100.00;98374.80;3827914;75;396113;-77
2021/01/25 19:13:09;;;;;;;3.33;2.40;;;;;;;0.19;100.00;98381.22;3828091;75;396358;-77
2021/01/25 19:18:30;;;;;;;19.03;3.63;;;;;;;0.23;100.00;98382.66;3827825;75;398190;-77
2021/01/25 19:23:52;;;;;;;3.40;3.10;;;;;;;0.18;100.00;98397.78;3827942;75;396339;-77
2021/01/25 19:29:16;;;;;;;4.13;2.73;;;;;;;0.22;100.00;98410.25;3827787;76;396383;-77
2021/01/25 19:34:39;;;;;;;4.00;2.70;;;;;;;0.23;100.00;98429.41;3827597;75;396288;-77
2021/01/25 19:40:00;;;;;;;2.60;1.90;;;;;;;0.24;100.00;98435.62;3843949;75;396366;-77
2021/01/25 19:45:29;;;;;;;4.00;2.83;;;;;;;0.18;100.00;98449.95;3845409;76;396323;-77
2021/01/25 19:50:50;;;;;;;2.57;2.30;;;;;;;0.23;100.00;98454.33;3845680;76;396093;-77
2021/01/25 19:56:13;;;;;;;3.20;2.27;;;;;;;0.27;100.00;98457.89;3845564;76;396071;-77
2021/01/25 20:01:34;;;;;;;1.20;1.10;;;;;;;0.28;100.00;98471.06;3846319;76;393979;-77
2021/01/25 20:06:55;;;;;;;7.53;4.10;;;;;;;0.36;100.00;98476.10;3846287;76;394003;-77
2021/01/25 20:12:18;;;;;;;1.40;1.03;;;;;;;0.44;100.00;98483.27;3846049;76;394208;-77
2021/01/25 20:17:39;;;;;;;1.87;1.53;;;;;;;0.49;100.00;98488.41;3846272;76;389786;-77
2021/01/25 20:23:03;;;;;;;2.47;2.27;;;;;;;0.42;100.00;98496.34;3845394;76;396054;-77
2021/01/25 20:28:26;;;;;;;3.90;3.00;;;;;;;0.49;100.00;98514.11;3847467;75;396120;-77
2021/01/25 20:33:50;;;;;;;7.30;2.33;;;;;;;0.54;100.00;98519.29;3846249;76;394046;-77
2021/01/25 20:39:12;;;;;;;2.97;2.77;;;;;;;0.47;100.00;98535.34;3844977;76;396118;-77
2021/01/25 20:44:33;;;;;;;4.40;1.63;;;;;;;0.56;100.00;98545.44;3845518;76;396022;-77
2021/01/25 20:49:54;;;;;;;1.23;1.13;;;;;;;0.58;100.00;98548.56;3846175;76;392954;-77
2021/01/25 20:55:15;;;;;;;0.90;0.70;;;;;;;0.63;100.00;98564.56;3846806;76;386115;-77
2021/01/25 21:00:39;;;;;;;3.53;2.80;;;;;;;0.64;100.00;98570.97;3846072;76;396097;-77
2021/01/25 21:06:00;;;;;;;3.07;2.20;;;;;;;0.67;100.00;98581.11;3846025;76;394325;-77
2021/01/25 21:11:21;;;;;;;1.27;1.17;;;;;;;0.68;100.00;98586.75;3845746;76;395288;-77
2021/01/25 21:16:43;;;;;;;1.80;1.17;;;;;;;0.69;100.00;98588.88;3845495;76;396031;-77
2021/01/25 21:22:05;;;;;;;2.80;1.67;;;;;;;0.67;100.00;98597.35;3845821;76;395288;-77
2021/01/25 21:27:26;;;;;;;2.70;1.57;;;;;;;0.60;100.00;98605.29;3845566;76;396133;-77
2021/01/25 21:32:48;;;;;;;5.90;2.40;;;;;;;0.69;100.00;98611.30;3845799;76;392142;-77
2021/01/25 21:38:10;;;;;;;3.53;2.37;;;;;;;0.68;100.00;98622.48;3840768;76;396319;-77
2021/01/25 21:43:31;;;;;;;1.97;1.87;;;;;;;0.69;100.00;98615.36;3827930;75;396299;-77
2021/01/25 21:48:52;;;;;;;11.37;2.57;;;;;;;0.63;100.00;98626.81;3828587;75;400186;-77
2021/01/25 21:54:13;;;;;;;2.80;2.30;;;;;;;0.76;100.00;98631.82;3827749;75;396314;-77
2021/01/25 21:59:38;;;;;;;3.33;2.50;;;;;;;0.77;100.00;98638.01;3828445;77;394998;-77
2021/01/25 22:04:57;;;;;;;0.90;0.80;;;;;;;0.68;100.00;98633.31;3830072;74;383590;-77
2021/01/25 22:10:19;;;;;;;2.83;0.93;;;;;;;0.65;100.00;98632.67;3829233;75;383575;-77
2021/01/25 22:15:42;;;;;;;1.73;1.17;;;;;;;0.74;100.00;98641.39;3828475;75;396090;-77
2021/01/25 22:21:04;;;;;;;1.93;1.77;;;;;;;0.65;100.00;98653.74;3828999;75;383543;-77
2021/01/25 22:26:25;;;;;;;1.90;1.80;;;;;;;0.72;100.00;98649.88;3827957;75;396081;-77
2021/01/25 22:31:47;;;;;;;0.90;0.80;;;;;;;0.54;100.00;98646.46;3828977;77;391951;-77
2021/01/25 22:37:08;;;;;;;2.60;1.87;;;;;;;0.55;100.00;98664.28;3828320;75;387793;-77
2021/01/25 22:42:29;;;;;;;0.80;0.60;;;;;;;0.42;100.00;98669.48;3848537;75;387757;-77
2021/01/25 22:47:51;;;;;;;1.00;0.70;;;;;;;0.31;100.00;98675.95;3846515;75;391862;-77
2021/01/25 22:53:11;;;;;;;3.10;2.87;;;;;;;0.38;100.00;98676.73;3845294;75;396283;-77
2021/01/25 22:58:33;;;;;;;2.03;1.03;;;;;;;0.41;100.00;98676.02;3846461;75;390102;-77
2021/01/25 23:03:54;;;;;;;0.93;0.83;;;;;;;0.46;100.00;98683.34;3846409;75;383800;-77
2021/01/25 23:09:15;;;;;;;1.73;1.53;;;;;;;0.34;100.00;98695.56;3845998;75;396101;-77
2021/01/25 23:14:37;;;;;;;2.20;1.70;;;;;;;0.28;100.00;98696.13;3846146;76;383799;-76
2021/01/25 23:20:00;;;;;;;6.13;1.83;;;;;;;0.24;100.00;98699.31;3845741;75;394065;-77
2021/01/25 23:25:26;;;;;;;2.30;1.63;;;;;;;0.19;100.00;98701.69;3845407;75;396075;-77
2021/01/25 23:30:48;;;;;;;1.63;0.57;;;;;;;0.15;100.00;98710.81;3846403;76;390144;-77
2021/01/25 23:36:09;;;;;;;1.17;0.80;;;;;;;0.12;100.00;98722.30;3846176;75;389822;-77
2021/01/25 23:41:30;;;;;;;1.30;1.20;;;;;;;-0.02;100.00;98725.34;3845608;75;391898;-77
2021/01/25 23:46:52;;;;;;;1.10;0.80;;;;;;;0.13;100.00;98726.59;3846716;76;388077;-77
2021/01/25 23:52:13;;;;;;;1.77;1.67;;;;;;;0.03;100.00;98734.60;3845907;75;387761;-77
2021/01/25 23:57:39;;;;;;;1.23;1.13;;;;;;;-0.06;100.00;98731.77;3846207;75;385871;-77
